createdAt,value
2022-10-13T00:00:42.633Z,61.54
2022-10-13T00:03:09.256Z,60.99
2022-10-13T00:05:41.208Z,61.06
2022-10-13T00:08:08.026Z,61.17
2022-10-13T00:10:42.553Z,61.08
2022-10-13T00:13:11.866Z,61.05
2022-10-13T00:15:43.964Z,60.95
2022-10-13T00:18:10.691Z,61.04
2022-10-13T00:20:41.859Z,61.36
2022-10-13T00:23:08.746Z,60.85
2022-10-13T00:25:35.306Z,61.57
2022-10-13T00:28:01.914Z,62.95
2022-10-13T00:30:35.233Z,61.73
2022-10-13T00:33:01.791Z,61.47
2022-10-13T00:35:28.325Z,62.42
2022-10-13T00:37:54.884Z,62.00
2022-10-13T00:40:21.429Z,61.88
2022-10-13T00:42:47.991Z,61.63
2022-10-13T00:45:17.523Z,61.76
2022-10-13T00:47:48.296Z,61.59
2022-10-13T00:50:19.604Z,61.71
2022-10-13T00:52:51.780Z,62.06
2022-10-13T00:55:25.311Z,61.51
2022-10-13T00:57:55.774Z,62.00
2022-10-13T01:00:30.213Z,61.83
2022-10-13T01:02:57.299Z,61.59
2022-10-13T01:05:25.560Z,61.68
2022-10-13T01:07:56.691Z,61.48
2022-10-13T01:10:46.433Z,61.60
2022-10-13T01:13:28.267Z,62.23
2022-10-13T01:16:05.858Z,63.24
2022-10-13T01:18:32.297Z,63.57
2022-10-13T01:21:21.842Z,63.83
2022-10-13T01:24:06.363Z,63.85
2022-10-13T01:26:54.279Z,64.47
2022-10-13T01:29:51.129Z,64.54
2022-10-13T01:32:52.140Z,64.04
2022-10-13T01:35:58.085Z,64.73
2022-10-13T01:38:44.827Z,64.84
2022-10-13T01:41:19.519Z,65.24
2022-10-13T01:43:56.087Z,65.11
2022-10-13T01:46:26.632Z,65.70
2022-10-13T01:48:56.394Z,65.53
2022-10-13T01:51:26.475Z,65.61
2022-10-13T01:53:53.244Z,65.12
2022-10-13T01:56:19.804Z,64.96
2022-10-13T01:58:49.784Z,64.82
2022-10-13T02:01:54.183Z,65.12
2022-10-13T02:04:31.765Z,66.58
2022-10-13T02:07:06.164Z,65.49
2022-10-13T02:09:57.822Z,66.40
2022-10-13T02:12:29.338Z,66.78
2022-10-13T02:14:58.099Z,67.71
2022-10-13T02:17:27.221Z,66.79
2022-10-13T02:19:54.866Z,67.85
2022-10-13T02:22:26.832Z,68.45
2022-10-13T02:24:55.183Z,68.96
2022-10-13T02:27:23.178Z,68.79
2022-10-13T02:29:53.810Z,69.63
2022-10-13T02:32:21.784Z,70.19
2022-10-13T02:34:49.177Z,70.89
2022-10-13T02:37:16.079Z,68.99
2022-10-13T02:39:42.838Z,68.93
2022-10-13T02:42:11.193Z,68.55
2022-10-13T02:44:37.787Z,69.71
2022-10-13T02:47:04.357Z,69.57
2022-10-13T02:49:31.043Z,70.13
2022-10-13T02:51:57.643Z,69.38
2022-10-13T02:54:24.187Z,70.56
2022-10-13T02:56:50.734Z,69.49
2022-10-13T02:59:17.482Z,69.80
2022-10-13T03:01:44.582Z,70.99
2022-10-13T03:04:11.601Z,70.01
2022-10-13T03:06:38.412Z,69.50
2022-10-13T03:09:05.456Z,68.97
2022-10-13T03:11:31.962Z,69.82
2022-10-13T03:13:58.485Z,68.24
2022-10-13T03:16:25.063Z,67.43
2022-10-13T03:18:51.597Z,67.50
2022-10-13T03:21:18.201Z,67.51
2022-10-13T03:23:44.697Z,68.14
2022-10-13T03:26:11.425Z,68.41
2022-10-13T03:28:38.003Z,67.73
2022-10-13T03:31:07.439Z,67.88
2022-10-13T03:33:33.957Z,67.79
2022-10-13T03:36:02.278Z,67.59
2022-10-13T03:38:30.666Z,67.82
2022-10-13T03:40:57.212Z,68.58
2022-10-13T03:43:25.404Z,68.89
2022-10-13T03:46:00.205Z,68.05
2022-10-13T03:48:28.439Z,67.64
2022-10-13T03:50:55.690Z,67.21
2022-10-13T03:53:22.345Z,67.19
2022-10-13T03:55:51.248Z,66.99
2022-10-13T03:58:18.295Z,67.19
2022-10-13T04:00:46.966Z,67.23
2022-10-13T04:03:13.982Z,67.20
2022-10-13T04:05:40.691Z,66.29
2022-10-13T04:08:08.048Z,65.94
2022-10-13T04:10:34.627Z,66.65
2022-10-13T04:13:01.234Z,68.05
2022-10-13T04:15:27.956Z,68.21
2022-10-13T04:17:54.485Z,67.22
2022-10-13T04:20:21.021Z,67.01
2022-10-13T04:22:47.540Z,66.76
2022-10-13T04:25:14.091Z,66.78
2022-10-13T04:27:40.701Z,67.72
2022-10-13T04:30:07.897Z,67.78
2022-10-13T04:32:34.424Z,67.37
2022-10-13T04:35:02.391Z,67.92
2022-10-13T04:37:29.498Z,69.17
2022-10-13T04:39:56.425Z,69.24
2022-10-13T04:42:23.752Z,68.60
2022-10-13T04:44:50.280Z,67.44
2022-10-13T04:47:20.840Z,67.21
2022-10-13T04:49:47.373Z,66.77
2022-10-13T04:52:14.073Z,67.49
2022-10-13T04:54:40.639Z,68.85
2022-10-13T04:57:07.154Z,68.85
2022-10-13T04:59:33.711Z,67.56
2022-10-13T05:02:00.254Z,68.23
2022-10-13T05:04:26.775Z,68.24
2022-10-13T05:07:16.427Z,68.09
2022-10-13T05:09:39.990Z,68.10
2022-10-13T05:12:10.270Z,67.26
2022-10-13T05:14:36.832Z,67.97
2022-10-13T05:17:08.430Z,68.22
2022-10-13T05:19:34.999Z,68.97
2022-10-13T05:22:01.512Z,69.20
2022-10-13T05:24:36.674Z,68.23
2022-10-13T05:27:09.627Z,67.79
2022-10-13T05:29:36.608Z,66.70
2022-10-13T05:32:03.502Z,65.54
2022-10-13T05:34:30.475Z,64.93
2022-10-13T05:36:57.000Z,64.97
2022-10-13T05:39:23.582Z,64.83
2022-10-13T05:41:50.215Z,64.58
2022-10-13T05:44:20.891Z,64.35
2022-10-13T05:46:53.751Z,64.90
2022-10-13T05:49:20.312Z,65.60
2022-10-13T05:51:56.676Z,65.77
2022-10-13T05:54:42.440Z,66.01
2022-10-13T05:57:15.702Z,66.19
2022-10-13T05:59:48.842Z,66.91
2022-10-13T06:02:17.377Z,66.32
2022-10-13T06:04:48.974Z,67.03
2022-10-13T06:07:15.491Z,67.73
2022-10-13T06:09:42.710Z,68.52
2022-10-13T06:12:10.281Z,69.22
2022-10-13T06:14:36.887Z,68.71
2022-10-13T06:17:06.831Z,68.23
2022-10-13T06:19:33.651Z,69.16
2022-10-13T06:22:07.038Z,69.62
2022-10-13T06:24:33.831Z,69.89
2022-10-13T06:27:00.361Z,69.98
2022-10-13T06:29:26.961Z,70.62
2022-10-13T06:31:53.475Z,69.96
2022-10-13T06:34:19.991Z,70.21
2022-10-13T06:36:47.230Z,69.84
2022-10-13T06:39:14.430Z,70.86
2022-10-13T06:41:40.935Z,70.51
2022-10-13T06:44:07.542Z,70.33
2022-10-13T06:46:34.086Z,70.53
2022-10-13T06:49:00.653Z,70.11
2022-10-13T06:51:28.006Z,70.52
2022-10-13T06:53:56.731Z,71.32
2022-10-13T06:56:25.477Z,71.73
2022-10-13T06:58:52.021Z,70.86
2022-10-13T07:01:18.641Z,71.28
2022-10-13T07:03:48.799Z,71.22
2022-10-13T07:06:18.523Z,71.24
2022-10-13T07:08:45.061Z,71.42
2022-10-13T07:11:16.145Z,71.58
2022-10-13T07:13:46.297Z,72.27
2022-10-13T07:16:15.568Z,72.48
2022-10-13T07:18:42.322Z,72.50
2022-10-13T07:21:09.550Z,72.90
2022-10-13T07:23:36.101Z,72.41
2022-10-13T07:26:07.694Z,71.92
2022-10-13T07:28:34.502Z,71.59
2022-10-13T07:31:06.990Z,72.55
2022-10-13T07:33:36.851Z,72.50
2022-10-13T07:36:04.381Z,72.46
2022-10-13T07:38:30.940Z,72.02
2022-10-13T07:41:01.574Z,72.09
2022-10-13T07:43:28.583Z,71.47
2022-10-13T07:45:58.917Z,71.49
2022-10-13T07:48:27.007Z,71.58
2022-10-13T07:50:54.425Z,71.15
2022-10-13T07:53:20.994Z,70.96
2022-10-13T07:55:47.572Z,70.80
2022-10-13T07:58:14.170Z,70.32
2022-10-13T08:00:40.927Z,70.38
2022-10-13T08:03:07.703Z,69.85
2022-10-13T08:05:36.278Z,69.91
2022-10-13T08:08:04.035Z,70.25
2022-10-13T08:10:30.686Z,70.55
2022-10-13T08:12:57.204Z,70.00
2022-10-13T08:15:23.733Z,70.19
2022-10-13T08:17:50.286Z,70.18
2022-10-13T08:20:17.135Z,70.20
2022-10-13T08:22:43.678Z,70.58
2022-10-13T08:25:10.520Z,70.60
2022-10-13T08:27:50.648Z,70.17
2022-10-13T08:30:17.939Z,70.35
2022-10-13T08:32:44.631Z,70.29
2022-10-13T08:35:11.644Z,70.65
2022-10-13T08:37:38.237Z,70.45
2022-10-13T08:40:05.176Z,70.40
2022-10-13T08:42:32.174Z,70.25
2022-10-13T08:47:55.427Z,70.25
2022-10-13T08:50:25.362Z,70.51
2022-10-13T08:53:01.735Z,70.44
2022-10-13T08:55:50.089Z,70.30
2022-10-13T08:58:33.602Z,70.63
2022-10-13T09:01:05.492Z,70.57
2022-10-13T09:03:32.048Z,70.62
2022-10-13T09:06:00.975Z,70.88
2022-10-13T09:08:40.969Z,71.60
2022-10-13T09:11:10.369Z,70.43
2022-10-13T09:13:36.893Z,70.58
2022-10-13T09:16:03.537Z,70.46
2022-10-13T09:18:32.694Z,70.11
2022-10-13T09:21:19.208Z,70.04
2022-10-13T09:23:46.372Z,70.12
2022-10-13T09:26:20.344Z,69.59
2022-10-13T09:28:48.307Z,69.30
2022-10-13T09:31:27.620Z,68.86
2022-10-13T09:34:00.789Z,68.94
2022-10-13T09:36:28.113Z,68.97
2022-10-13T09:39:15.956Z,68.67
2022-10-13T09:41:44.498Z,68.49
2022-10-13T09:44:16.780Z,68.34
2022-10-13T09:46:55.305Z,68.16
2022-10-13T09:49:26.036Z,68.23
2022-10-13T09:51:52.690Z,68.50
2022-10-13T09:54:39.611Z,67.68
2022-10-13T09:57:19.143Z,67.45
2022-10-13T09:59:50.635Z,67.37
2022-10-13T10:02:40.920Z,67.96
2022-10-13T10:05:25.619Z,68.08
2022-10-13T10:08:03.035Z,67.81
2022-10-13T10:10:36.950Z,68.42
2022-10-13T10:13:11.533Z,67.75
2022-10-13T10:15:56.798Z,67.77
2022-10-13T10:18:39.830Z,68.48
2022-10-13T10:21:29.897Z,66.90
2022-10-13T10:23:59.367Z,67.01
2022-10-13T10:26:55.049Z,66.16
2022-10-13T10:29:50.358Z,66.20
2022-10-13T10:32:16.979Z,65.95
2022-10-13T10:34:53.506Z,65.52
2022-10-13T10:37:36.376Z,66.19
2022-10-13T10:40:33.630Z,66.95
2022-10-13T10:43:26.004Z,66.50
2022-10-13T10:45:56.748Z,65.68
2022-10-13T10:48:37.654Z,66.35
2022-10-13T10:51:11.259Z,66.38
2022-10-13T10:53:37.743Z,65.65
2022-10-13T10:56:31.738Z,65.97
2022-10-13T10:59:40.154Z,65.68
2022-10-13T11:02:06.607Z,64.88
2022-10-13T11:04:33.312Z,65.61
2022-10-13T11:06:59.849Z,64.78
2022-10-13T11:09:50.396Z,64.57
2022-10-13T11:12:20.541Z,64.68
2022-10-13T11:14:53.878Z,65.46
2022-10-13T11:17:26.245Z,64.66
2022-10-13T11:19:53.097Z,64.76
2022-10-13T11:22:22.629Z,64.92
2022-10-13T11:24:55.662Z,64.45
2022-10-13T11:27:26.487Z,65.05
2022-10-13T11:29:58.634Z,64.06
2022-10-13T11:32:25.171Z,64.81
2022-10-13T11:34:57.584Z,64.22
2022-10-13T11:37:31.033Z,64.71
2022-10-13T11:40:25.024Z,64.14
2022-10-13T11:43:10.113Z,64.81
2022-10-13T11:45:49.833Z,65.20
2022-10-13T11:48:34.594Z,65.13
2022-10-13T11:51:30.178Z,64.80
2022-10-13T11:54:05.890Z,64.77
2022-10-13T11:56:39.347Z,63.32
2022-10-13T11:59:25.444Z,64.21
2022-10-13T12:02:05.493Z,63.69
2022-10-13T12:04:32.236Z,63.28
2022-10-13T12:07:02.164Z,63.97
2022-10-13T12:09:31.427Z,63.93
2022-10-13T12:12:01.940Z,64.14
2022-10-13T12:14:50.624Z,63.60
2022-10-13T12:17:27.575Z,62.08
2022-10-13T12:19:56.867Z,61.89
2022-10-13T12:22:23.601Z,62.65
2022-10-13T12:25:06.959Z,61.80
2022-10-13T12:27:45.986Z,61.53
2022-10-13T12:30:42.009Z,61.59
2022-10-13T12:33:40.879Z,61.41
2022-10-13T12:36:25.174Z,61.42
2022-10-13T12:38:54.013Z,61.84
2022-10-13T12:41:33.306Z,61.47
2022-10-13T12:44:03.898Z,61.51
2022-10-13T12:46:42.905Z,61.32
2022-10-13T12:49:14.351Z,61.64
2022-10-13T12:51:42.935Z,60.74
2022-10-13T12:54:22.902Z,61.70
2022-10-13T12:56:55.302Z,61.41
2022-10-13T12:59:24.536Z,60.18
2022-10-13T13:02:03.056Z,59.25
2022-10-13T13:04:41.106Z,59.61
2022-10-13T13:07:28.260Z,59.78
2022-10-13T13:10:07.731Z,58.80
2022-10-13T13:12:37.897Z,59.69
2022-10-13T13:15:25.317Z,59.84
2022-10-13T13:17:58.414Z,60.42
2022-10-13T13:20:34.642Z,60.37
2022-10-13T13:23:01.279Z,60.88
2022-10-13T13:25:27.905Z,60.32
2022-10-13T13:27:54.559Z,60.11
2022-10-13T13:30:23.977Z,61.35
2022-10-13T13:32:50.841Z,61.09
2022-10-13T13:35:17.474Z,60.76
2022-10-13T13:37:51.412Z,60.01
2022-10-13T13:40:23.991Z,60.28
2022-10-13T13:42:50.656Z,60.30
2022-10-13T13:45:19.835Z,60.92
2022-10-13T13:47:46.520Z,61.41
2022-10-13T13:50:20.253Z,60.11
2022-10-13T13:52:56.170Z,61.94
2022-10-13T13:55:23.322Z,61.27
2022-10-13T13:57:49.906Z,61.71
2022-10-13T14:00:17.693Z,60.79
2022-10-13T14:02:50.415Z,60.66
2022-10-13T14:05:17.100Z,61.20
2022-10-13T14:07:43.727Z,61.64
2022-10-13T14:10:10.852Z,61.50
2022-10-13T14:12:37.878Z,61.18
2022-10-13T14:15:05.003Z,60.93
2022-10-13T14:17:31.533Z,61.10
2022-10-13T14:20:00.431Z,61.45
2022-10-13T14:22:27.270Z,61.36
2022-10-13T14:24:54.125Z,61.92
2022-10-13T14:27:20.831Z,61.95
2022-10-13T14:29:47.399Z,61.58
2022-10-13T14:32:15.476Z,62.27
2022-10-13T14:34:42.042Z,61.80
2022-10-13T14:37:08.621Z,62.15
2022-10-13T14:39:35.150Z,62.29
2022-10-13T14:42:01.811Z,62.30
2022-10-13T14:44:28.326Z,62.80
2022-10-13T14:46:54.853Z,62.53
2022-10-13T14:49:21.365Z,62.94
2022-10-13T14:51:47.978Z,63.12
2022-10-13T14:54:16.152Z,62.83
2022-10-13T14:56:44.483Z,63.01
2022-10-13T14:59:11.844Z,62.76
2022-10-13T15:01:41.316Z,62.34
2022-10-13T15:04:08.408Z,62.14
2022-10-13T15:06:35.728Z,61.58
2022-10-13T15:09:02.319Z,61.91
2022-10-13T15:11:28.904Z,61.44
2022-10-13T15:13:56.346Z,62.05
2022-10-13T15:16:26.137Z,61.28
2022-10-13T15:18:52.716Z,61.32
2022-10-13T15:21:19.403Z,60.96
2022-10-13T15:23:46.861Z,61.18
2022-10-13T15:26:15.159Z,61.13
2022-10-13T15:28:46.980Z,60.92
2022-10-13T15:31:15.906Z,60.70
2022-10-13T15:33:44.748Z,61.21
2022-10-13T15:36:11.392Z,61.31
2022-10-13T15:38:39.468Z,61.48
2022-10-13T15:41:07.326Z,61.56
2022-10-13T15:43:34.444Z,61.50
2022-10-13T15:46:03.381Z,61.61
2022-10-13T15:48:30.421Z,61.50
2022-10-13T15:50:56.956Z,61.34
2022-10-13T15:53:23.627Z,61.09
2022-10-13T15:55:50.228Z,61.12
2022-10-13T15:58:17.678Z,61.36
2022-10-13T16:00:44.940Z,61.33
2022-10-13T16:03:15.266Z,61.69
2022-10-13T16:05:43.324Z,61.73
2022-10-13T16:08:10.489Z,61.37
2022-10-13T16:10:42.271Z,61.56
2022-10-13T16:13:12.315Z,61.40
2022-10-13T16:15:38.933Z,61.74
2022-10-13T16:18:05.678Z,61.68
2022-10-13T16:20:34.987Z,61.51
2022-10-13T16:23:01.974Z,60.97
2022-10-13T16:25:29.273Z,60.91
2022-10-13T16:27:56.108Z,60.66
2022-10-13T16:30:22.656Z,60.91
2022-10-13T16:32:49.318Z,60.87
2022-10-13T16:35:15.993Z,61.59
2022-10-13T16:37:42.511Z,61.97
2022-10-13T16:40:09.519Z,62.12
2022-10-13T16:42:36.207Z,61.87
2022-10-13T16:45:03.466Z,61.53
2022-10-13T16:47:30.033Z,61.35
2022-10-13T16:49:56.590Z,61.46
2022-10-13T16:52:23.698Z,61.66
2022-10-13T16:54:50.292Z,62.15
2022-10-13T16:57:16.928Z,62.93
2022-10-13T16:59:43.453Z,62.88
2022-10-13T17:02:14.865Z,63.19
2022-10-13T17:04:42.332Z,63.98
2022-10-13T17:07:08.963Z,64.01
2022-10-13T17:09:35.493Z,63.40
2022-10-13T17:12:03.731Z,63.24
2022-10-13T17:14:30.507Z,62.63
2022-10-13T17:16:58.123Z,63.42
2022-10-13T17:19:25.613Z,63.08
2022-10-13T17:21:52.298Z,62.86
2022-10-13T17:24:18.839Z,62.83
2022-10-13T17:26:45.676Z,62.62
2022-10-13T17:29:12.354Z,63.46
2022-10-13T17:31:38.888Z,63.71
2022-10-13T17:34:06.171Z,65.26
2022-10-13T17:36:34.000Z,64.61
2022-10-13T17:39:09.731Z,64.85
2022-10-13T17:41:40.795Z,63.52
2022-10-13T17:44:07.346Z,63.81
2022-10-13T17:46:38.652Z,64.70
2022-10-13T17:49:07.912Z,64.66
2022-10-13T17:51:34.797Z,65.63
2022-10-13T17:54:01.612Z,67.03
2022-10-13T17:56:28.891Z,65.99
2022-10-13T17:58:55.557Z,64.26
2022-10-13T18:01:25.156Z,63.36
2022-10-13T18:03:57.086Z,63.82
2022-10-13T18:06:37.902Z,63.75
2022-10-13T18:09:06.838Z,63.91
2022-10-13T18:11:35.017Z,63.16
2022-10-13T18:14:01.767Z,63.23
2022-10-13T18:16:28.388Z,63.27
2022-10-13T18:18:55.007Z,63.21
2022-10-13T18:21:23.922Z,63.16
2022-10-13T18:23:51.620Z,63.32
2022-10-13T18:26:19.705Z,63.33
2022-10-13T18:28:48.314Z,63.22
2022-10-13T18:31:24.152Z,62.95
2022-10-13T18:33:52.309Z,63.56
2022-10-13T18:36:24.834Z,64.31
2022-10-13T18:38:53.582Z,64.87
2022-10-13T18:41:23.607Z,64.58
2022-10-13T18:43:50.636Z,64.74
2022-10-13T18:46:18.881Z,65.98
2022-10-13T18:48:47.246Z,66.75
2022-10-13T18:51:16.778Z,67.30
2022-10-13T18:53:45.161Z,65.58
2022-10-13T18:56:15.059Z,65.84
2022-10-13T18:58:42.316Z,64.89
2022-10-13T19:01:12.303Z,65.43
2022-10-13T19:03:40.594Z,65.32
2022-10-13T19:06:09.574Z,64.76
2022-10-13T19:08:36.146Z,65.40
2022-10-13T19:11:14.298Z,65.80
2022-10-13T19:13:41.283Z,66.46
2022-10-13T19:16:08.630Z,65.57
2022-10-13T19:18:35.966Z,65.90
2022-10-13T19:21:02.840Z,65.67
2022-10-13T19:23:29.613Z,65.39
2022-10-13T19:25:56.586Z,65.01
2022-10-13T19:28:23.397Z,67.04
2022-10-13T19:30:54.445Z,66.85
2022-10-13T19:33:21.066Z,66.90
2022-10-13T19:35:51.553Z,67.28
2022-10-13T19:38:18.493Z,66.81
2022-10-13T19:40:49.415Z,66.66
2022-10-13T19:43:17.250Z,66.68
2022-10-13T19:45:48.925Z,65.90
2022-10-13T19:48:16.333Z,64.83
2022-10-13T19:50:43.610Z,64.65
2022-10-13T19:53:14.317Z,64.57
2022-10-13T19:55:46.390Z,64.76
2022-10-13T19:58:15.892Z,64.29
2022-10-13T20:00:44.678Z,64.09
2022-10-13T20:03:12.365Z,64.45
2022-10-13T20:05:41.631Z,64.75
2022-10-13T20:08:10.302Z,65.42
2022-10-13T20:10:41.201Z,65.44
2022-10-13T20:13:08.660Z,65.21
2022-10-13T20:15:39.957Z,65.38
2022-10-13T20:18:07.145Z,66.50
2022-10-13T20:20:35.405Z,67.77
2022-10-13T20:23:01.999Z,67.43
2022-10-13T20:25:28.686Z,66.65
2022-10-13T20:27:55.278Z,66.27
2022-10-13T20:30:22.093Z,66.25
2022-10-13T20:32:48.674Z,65.74
2022-10-13T20:35:15.260Z,66.42
2022-10-13T20:37:41.813Z,65.84
2022-10-13T20:40:08.819Z,65.42
2022-10-13T20:42:35.606Z,65.38
2022-10-13T20:45:02.200Z,65.79
2022-10-13T20:47:28.756Z,65.71
2022-10-13T20:49:55.460Z,65.82
2022-10-13T20:52:22.017Z,65.40
2022-10-13T20:54:48.532Z,65.47
2022-10-13T20:57:15.087Z,65.13
2022-10-13T20:59:44.328Z,65.84
2022-10-13T21:02:12.954Z,65.06
2022-10-13T21:04:39.718Z,64.71
2022-10-13T21:07:06.260Z,66.05
2022-10-13T21:09:34.995Z,66.15
2022-10-13T21:12:01.555Z,65.75
2022-10-13T21:14:28.217Z,65.16
2022-10-13T21:16:54.764Z,65.14
2022-10-13T21:19:21.372Z,64.86
2022-10-13T21:21:47.893Z,64.46
2022-10-13T21:24:14.566Z,64.48
2022-10-13T21:26:41.487Z,64.80
2022-10-13T21:29:13.340Z,65.52
2022-10-13T21:31:39.877Z,66.05
2022-10-13T21:34:06.444Z,66.23
2022-10-13T21:36:33.766Z,66.28
2022-10-13T21:39:04.338Z,65.76
2022-10-13T21:41:32.543Z,65.52
2022-10-13T21:43:59.275Z,65.12
2022-10-13T21:46:31.404Z,65.65
2022-10-13T21:49:00.359Z,66.26
2022-10-13T21:51:34.064Z,67.17
2022-10-13T21:54:04.757Z,68.26
2022-10-13T21:56:32.551Z,69.29
2022-10-13T21:58:59.957Z,68.65
2022-10-13T22:01:26.650Z,68.08
2022-10-13T22:03:56.312Z,67.13
2022-10-13T22:06:25.872Z,66.51
2022-10-13T22:08:54.611Z,66.27
2022-10-13T22:11:23.429Z,66.58
2022-10-13T22:13:50.674Z,66.74
2022-10-13T22:16:22.988Z,66.23
2022-10-13T22:18:54.385Z,67.48
2022-10-13T22:21:23.467Z,68.59
2022-10-13T22:23:50.117Z,67.74
2022-10-13T22:26:18.077Z,66.88
2022-10-13T22:28:48.140Z,66.26
2022-10-13T22:31:15.044Z,66.58
2022-10-13T22:33:42.891Z,66.82
2022-10-13T22:36:17.875Z,66.35
2022-10-13T22:38:46.296Z,66.76
2022-10-13T22:41:14.625Z,66.24
2022-10-13T22:43:44.276Z,65.75
2022-10-13T22:46:12.741Z,65.45
2022-10-13T22:48:40.851Z,65.40
2022-10-13T22:51:10.399Z,65.52
2022-10-13T22:53:36.991Z,65.39
2022-10-13T22:56:12.732Z,65.61
2022-10-13T22:58:39.311Z,65.92
2022-10-13T23:01:08.526Z,66.30
2022-10-13T23:03:36.330Z,66.12
2022-10-13T23:06:04.124Z,65.82
2022-10-13T23:08:31.183Z,65.99
2022-10-13T23:10:57.935Z,66.30
2022-10-13T23:13:24.564Z,65.60
2022-10-13T23:15:52.952Z,65.16
2022-10-13T23:18:24.392Z,66.00
2022-10-13T23:20:55.791Z,66.24
2022-10-13T23:23:25.856Z,66.72
2022-10-13T23:25:52.377Z,65.49
2022-10-13T23:28:19.054Z,65.49
2022-10-13T23:30:45.676Z,65.37
2022-10-13T23:33:12.199Z,64.91
2022-10-13T23:35:39.619Z,65.21
2022-10-13T23:38:06.238Z,65.67
2022-10-13T23:40:34.668Z,67.23
2022-10-13T23:43:01.234Z,67.27
2022-10-13T23:45:27.735Z,67.26
2022-10-13T23:47:54.329Z,67.59
2022-10-13T23:50:21.797Z,66.85
2022-10-13T23:52:48.309Z,67.12
2022-10-13T23:55:15.087Z,67.79
2022-10-13T23:57:41.606Z,67.44
